sensor_id;sensor_type;location;lat;lon;timestamp;pressure;altitude;pressure_sealevel;temperature;humidity
75221;BME280;63802;53.232;6.570;2023-04-03T00:00:59;103391.47;;;1.27;80.09
75221;BME280;63802;53.232;6.570;2023-04-03T00:03:25;103381.91;;;1.31;79.14
75221;BME280;63802;53.232;6.570;2023-04-03T00:05:51;103363.28;;;1.30;78.11
75221;BME280;63802;53.232;6.570;2023-04-03T00:08:16;103367.28;;;1.39;77.35
75221;BME280;63802;53.232;6.570;2023-04-03T00:10:42;103381.41;;;1.46;76.56
75221;BME280;63802;53.232;6.570;2023-04-03T00:13:07;103361.69;;;1.29;76.30
75221;BME280;63802;53.232;6.570;2023-04-03T00:15:35;103390.75;;;1.44;75.89
75221;BME280;63802;53.232;6.570;2023-04-03T00:18:01;103369.84;;;1.34;75.91
75221;BME280;63802;53.232;6.570;2023-04-03T00:20:27;103393.25;;;1.33;75.63
75221;BME280;63802;53.232;6.570;2023-04-03T00:22:53;103381.78;;;1.26;75.54
75221;BME280;63802;53.232;6.570;2023-04-03T00:25:19;103384.03;;;1.29;75.31
75221;BME280;63802;53.232;6.570;2023-04-03T00:27:45;103391.97;;;1.24;75.54
75221;BME280;63802;53.232;6.570;2023-04-03T00:30:13;103387.84;;;1.33;75.96
75221;BME280;63802;53.232;6.570;2023-04-03T00:32:39;103393.47;;;1.32;75.54
75221;BME280;63802;53.232;6.570;2023-04-03T00:35:06;103391.84;;;1.31;75.52
75221;BME280;63802;53.232;6.570;2023-04-03T00:37:32;103394.84;;;1.34;75.44
75221;BME280;63802;53.232;6.570;2023-04-03T00:39:57;103398.50;;;1.28;75.44
75221;BME280;63802;53.232;6.570;2023-04-03T00:42:23;103394.41;;;1.26;75.81
75221;BME280;63802;53.232;6.570;2023-04-03T00:47:16;103405.31;;;1.19;75.90
75221;BME280;63802;53.232;6.570;2023-04-03T00:49:43;103404.13;;;1.15;76.00
75221;BME280;63802;53.232;6.570;2023-04-03T00:52:12;103403.66;;;1.18;75.94
75221;BME280;63802;53.232;6.570;2023-04-03T00:54:40;103404.13;;;1.15;76.54
75221;BME280;63802;53.232;6.570;2023-04-03T00:57:08;103390.59;;;1.10;76.12
75221;BME280;63802;53.232;6.570;2023-04-03T00:59:42;103404.13;;;1.15;76.32
75221;BME280;63802;53.232;6.570;2023-04-03T01:02:10;103402.16;;;1.11;76.47
75221;BME280;63802;53.232;6.570;2023-04-03T01:04:41;103406.72;;;1.10;76.68
75221;BME280;63802;53.232;6.570;2023-04-03T01:07:10;103392.47;;;0.98;76.67
75221;BME280;63802;53.232;6.570;2023-04-03T01:09:37;103395.25;;;1.03;76.95
75221;BME280;63802;53.232;6.570;2023-04-03T01:12:34;103415.84;;;1.09;76.99
75221;BME280;63802;53.232;6.570;2023-04-03T01:15:14;103414.44;;;1.07;77.31
75221;BME280;63802;53.232;6.570;2023-04-03T01:17:51;103400.75;;;0.97;77.48
75221;BME280;63802;53.232;6.570;2023-04-03T01:25:40;103400.88;;;0.90;78.14
75221;BME280;63802;53.232;6.570;2023-04-03T01:28:09;103404.97;;;0.81;78.22
75221;BME280;63802;53.232;6.570;2023-04-03T01:33:24;103396.31;;;0.67;78.63
75221;BME280;63802;53.232;6.570;2023-04-03T01:35:50;103401.81;;;0.73;78.93
75221;BME280;63802;53.232;6.570;2023-04-03T01:38:15;103412.34;;;0.74;79.13
75221;BME280;63802;53.232;6.570;2023-04-03T01:40:41;103388.94;;;0.63;79.19
75221;BME280;63802;53.232;6.570;2023-04-03T01:43:06;103400.28;;;0.65;79.34
75221;BME280;63802;53.232;6.570;2023-04-03T01:45:31;103408.25;;;0.72;79.47
75221;BME280;63802;53.232;6.570;2023-04-03T01:47:57;103401.69;;;0.67;79.56
75221;BME280;63802;53.232;6.570;2023-04-03T01:50:23;103386.16;;;0.58;79.46
75221;BME280;63802;53.232;6.570;2023-04-03T01:52:48;103407.88;;;0.68;79.65
75221;BME280;63802;53.232;6.570;2023-04-03T01:55:13;103405.06;;;0.63;79.66
75221;BME280;63802;53.232;6.570;2023-04-03T01:57:40;103374.69;;;0.51;79.39
75221;BME280;63802;53.232;6.570;2023-04-03T02:00:06;103414.66;;;0.71;79.65
75221;BME280;63802;53.232;6.570;2023-04-03T02:02:32;103385.44;;;0.51;79.92
75221;BME280;63802;53.232;6.570;2023-04-03T02:04:58;103418.06;;;0.66;79.92
75221;BME280;63802;53.232;6.570;2023-04-03T02:07:23;103427.28;;;0.70;79.82
75221;BME280;63802;53.232;6.570;2023-04-03T02:09:49;103406.00;;;0.57;79.92
75221;BME280;63802;53.232;6.570;2023-04-03T02:12:14;103435.22;;;0.65;80.09
75221;BME280;63802;53.232;6.570;2023-04-03T02:14:40;103428.53;;;0.56;79.96
75221;BME280;63802;53.232;6.570;2023-04-03T02:17:05;103432.63;;;0.47;79.94
75221;BME280;63802;53.232;6.570;2023-04-03T02:19:36;103439.97;;;0.51;80.30
75221;BME280;63802;53.232;6.570;2023-04-03T02:22:03;103433.06;;;0.44;80.45
75221;BME280;63802;53.232;6.570;2023-04-03T02:24:28;103450.84;;;0.45;80.53
75221;BME280;63802;53.232;6.570;2023-04-03T02:26:54;103460.38;;;0.41;80.74
75221;BME280;63802;53.232;6.570;2023-04-03T02:29:19;103446.84;;;0.36;80.91
75221;BME280;63802;53.232;6.570;2023-04-03T02:31:45;103450.44;;;0.30;80.84
75221;BME280;63802;53.232;6.570;2023-04-03T02:34:11;103449.53;;;0.36;81.36
75221;BME280;63802;53.232;6.570;2023-04-03T02:36:36;103453.84;;;0.37;81.08
75221;BME280;63802;53.232;6.570;2023-04-03T02:39:02;103461.31;;;0.35;81.08
75221;BME280;63802;53.232;6.570;2023-04-03T02:41:28;103452.78;;;0.26;81.31
75221;BME280;63802;53.232;6.570;2023-04-03T02:44:00;103446.75;;;0.13;81.21
75221;BME280;63802;53.232;6.570;2023-04-03T02:46:25;103454.59;;;0.14;81.56
75221;BME280;63802;53.232;6.570;2023-04-03T02:48:50;103453.53;;;0.15;81.66
75221;BME280;63802;53.232;6.570;2023-04-03T02:51:16;103462.78;;;0.19;81.69
75221;BME280;63802;53.232;6.570;2023-04-03T02:53:41;103453.63;;;0.09;81.71
75221;BME280;63802;53.232;6.570;2023-04-03T02:56:07;103452.47;;;0.05;81.96
75221;BME280;63802;53.232;6.570;2023-04-03T02:58:32;103449.41;;;0.01;82.11
75221;BME280;63802;53.232;6.570;2023-04-03T03:00:58;103461.78;;;0.02;81.90
75221;BME280;63802;53.232;6.570;2023-04-03T03:03:23;103449.94;;;-0.09;82.57
75221;BME280;63802;53.232;6.570;2023-04-03T03:05:48;103446.09;;;-0.13;82.64
75221;BME280;63802;53.232;6.570;2023-04-03T03:08:14;103459.56;;;-0.19;82.37
75221;BME280;63802;53.232;6.570;2023-04-03T03:10:39;103467.50;;;-0.24;82.79
75221;BME280;63802;53.232;6.570;2023-04-03T03:13:05;103461.91;;;-0.41;82.99
75221;BME280;63802;53.232;6.570;2023-04-03T03:15:30;103442.25;;;-0.53;83.17
75221;BME280;63802;53.232;6.570;2023-04-03T03:17:56;103441.94;;;-0.63;83.82
75221;BME280;63802;53.232;6.570;2023-04-03T03:20:21;103446.09;;;-0.67;83.80
75221;BME280;63802;53.232;6.570;2023-04-03T03:22:47;103445.34;;;-0.74;84.20
75221;BME280;63802;53.232;6.570;2023-04-03T03:25:12;103461.00;;;-0.71;84.35
75221;BME280;63802;53.232;6.570;2023-04-03T03:27:37;103446.69;;;-0.83;84.33
75221;BME280;63802;53.232;6.570;2023-04-03T03:30:04;103462.34;;;-0.80;84.81
75221;BME280;63802;53.232;6.570;2023-04-03T03:32:30;103435.94;;;-1.01;84.78
75221;BME280;63802;53.232;6.570;2023-04-03T03:34:55;103472.72;;;-0.90;85.26
75221;BME280;63802;53.232;6.570;2023-04-03T03:37:21;103487.19;;;-0.91;85.54
75221;BME280;63802;53.232;6.570;2023-04-03T03:39:46;103468.44;;;-0.91;85.88
75221;BME280;63802;53.232;6.570;2023-04-03T03:42:11;103491.44;;;-0.84;85.64
75221;BME280;63802;53.232;6.570;2023-04-03T03:44:37;103485.09;;;-0.89;86.21
75221;BME280;63802;53.232;6.570;2023-04-03T03:47:02;103491.66;;;-0.85;85.86
75221;BME280;63802;53.232;6.570;2023-04-03T03:49:28;103467.38;;;-0.90;86.38
75221;BME280;63802;53.232;6.570;2023-04-03T03:51:53;103480.50;;;-0.82;85.93
75221;BME280;63802;53.232;6.570;2023-04-03T03:54:19;103482.13;;;-0.81;86.30
75221;BME280;63802;53.232;6.570;2023-04-03T03:56:44;103482.94;;;-0.81;86.55
75221;BME280;63802;53.232;6.570;2023-04-03T03:59:11;103491.22;;;-0.82;86.45
75221;BME280;63802;53.232;6.570;2023-04-03T04:01:37;103493.25;;;-0.78;86.47
75221;BME280;63802;53.232;6.570;2023-04-03T04:04:03;103493.59;;;-0.74;86.53
75221;BME280;63802;53.232;6.570;2023-04-03T04:06:28;103492.06;;;-0.82;86.53
75221;BME280;63802;53.232;6.570;2023-04-03T04:08:57;103497.41;;;-0.82;86.37
75221;BME280;63802;53.232;6.570;2023-04-03T04:11:22;103511.00;;;-0.83;86.46
75221;BME280;63802;53.232;6.570;2023-04-03T04:13:48;103505.31;;;-0.93;86.60
75221;BME280;63802;53.232;6.570;2023-04-03T04:16:13;103488.06;;;-0.97;86.51
75221;BME280;63802;53.232;6.570;2023-04-03T04:18:39;103497.91;;;-0.91;87.00
75221;BME280;63802;53.232;6.570;2023-04-03T04:21:04;103511.44;;;-0.86;86.53
75221;BME280;63802;53.232;6.570;2023-04-03T04:23:29;103490.91;;;-0.92;87.04
75221;BME280;63802;53.232;6.570;2023-04-03T04:25:55;103499.94;;;-0.87;86.58
75221;BME280;63802;53.232;6.570;2023-04-03T04:28:20;103488.75;;;-0.84;86.66
75221;BME280;63802;53.232;6.570;2023-04-03T04:30:46;103483.03;;;-0.87;86.65
75221;BME280;63802;53.232;6.570;2023-04-03T04:33:11;103489.13;;;-0.80;86.59
75221;BME280;63802;53.232;6.570;2023-04-03T04:35:36;103500.47;;;-0.78;86.79
75221;BME280;63802;53.232;6.570;2023-04-03T04:38:02;103488.97;;;-0.85;86.95
75221;BME280;63802;53.232;6.570;2023-04-03T04:40:28;103497.41;;;-0.82;87.01
75221;BME280;63802;53.232;6.570;2023-04-03T04:42:54;103486.28;;;-0.85;86.73
75221;BME280;63802;53.232;6.570;2023-04-03T04:45:20;103493.69;;;-0.81;86.84
75221;BME280;63802;53.232;6.570;2023-04-03T04:47:45;103505.66;;;-0.83;86.87
75221;BME280;63802;53.232;6.570;2023-04-03T04:50:11;103483.13;;;-1.00;86.93
75221;BME280;63802;53.232;6.570;2023-04-03T04:52:38;103511.44;;;-0.86;87.00
75221;BME280;63802;53.232;6.570;2023-04-03T04:55:04;103519.72;;;-0.88;86.98
75221;BME280;63802;53.232;6.570;2023-04-03T04:57:30;103525.16;;;-0.94;86.97
75221;BME280;63802;53.232;6.570;2023-04-03T04:59:56;103522.91;;;-0.97;86.96
75221;BME280;63802;53.232;6.570;2023-04-03T05:02:22;103509.59;;;-1.10;87.00
75221;BME280;63802;53.232;6.570;2023-04-03T05:04:50;103531.34;;;-1.00;87.23
75221;BME280;63802;53.232;6.570;2023-04-03T05:07:17;103532.19;;;-1.00;87.41
75221;BME280;63802;53.232;6.570;2023-04-03T05:09:42;103533.00;;;-0.99;87.33
75221;BME280;63802;53.232;6.570;2023-04-03T05:12:08;103526.59;;;-0.98;87.43
75221;BME280;63802;53.232;6.570;2023-04-03T05:14:33;103529.91;;;-0.96;87.44
75221;BME280;63802;53.232;6.570;2023-04-03T05:16:58;103537.53;;;-1.00;87.71
75221;BME280;63802;53.232;6.570;2023-04-03T05:19:24;103537.59;;;-1.06;87.73
75221;BME280;63802;53.232;6.570;2023-04-03T05:21:49;103540.47;;;-1.01;87.91
75221;BME280;63802;53.232;6.570;2023-04-03T05:24:15;103535.09;;;-1.01;87.76
75221;BME280;63802;53.232;6.570;2023-04-03T05:26:42;103541.25;;;-1.01;87.72
75221;BME280;63802;53.232;6.570;2023-04-03T05:29:08;103545.81;;;-1.01;87.77
75221;BME280;63802;53.232;6.570;2023-04-03T05:31:33;103537.19;;;-1.03;87.91
75221;BME280;63802;53.232;6.570;2023-04-03T05:33:59;103533.00;;;-0.99;88.21
75221;BME280;63802;53.232;6.570;2023-04-03T05:36:24;103531.34;;;-1.00;88.07
75221;BME280;63802;53.232;6.570;2023-04-03T05:38:51;103518.41;;;-1.03;88.02
75221;BME280;63802;53.232;6.570;2023-04-03T05:41:16;103531.09;;;-0.92;88.08
75221;BME280;63802;53.232;6.570;2023-04-03T05:43:42;103540.72;;;-0.85;88.28
75221;BME280;63802;53.232;6.570;2023-04-03T05:46:11;103555.75;;;-0.84;87.97
75221;BME280;63802;53.232;6.570;2023-04-03T05:48:37;103559.66;;;-0.80;88.14
75221;BME280;63802;53.232;6.570;2023-04-03T05:51:04;103562.94;;;-0.78;88.04
75221;BME280;63802;53.232;6.570;2023-04-03T05:53:31;103563.75;;;-0.77;87.83
75221;BME280;63802;53.232;6.570;2023-04-03T05:55:58;103562.88;;;-0.71;88.16
75221;BME280;63802;53.232;6.570;2023-04-03T05:58:23;103555.88;;;-0.72;88.01
75221;BME280;63802;53.232;6.570;2023-04-03T06:00:49;103558.28;;;-0.64;87.85
75221;BME280;63802;53.232;6.570;2023-04-03T06:03:15;103549.03;;;-0.68;87.74
75221;BME280;63802;53.232;6.570;2023-04-03T06:05:40;103559.47;;;-0.60;87.79
75221;BME280;63802;53.232;6.570;2023-04-03T06:08:06;103561.88;;;-0.52;87.73
75221;BME280;63802;53.232;6.570;2023-04-03T06:10:32;103568.88;;;-0.51;87.87
75221;BME280;63802;53.232;6.570;2023-04-03T06:12:57;103566.56;;;-0.47;87.26
75221;BME280;63802;53.232;6.570;2023-04-03T06:15:23;103571.22;;;-0.36;87.41
75221;BME280;63802;53.232;6.570;2023-04-03T06:17:48;103568.38;;;-0.23;87.21
75221;BME280;63802;53.232;6.570;2023-04-03T06:20:14;103564.00;;;-0.18;87.06
75221;BME280;63802;53.232;6.570;2023-04-03T06:22:39;103571.69;;;-0.03;86.74
75221;BME280;63802;53.232;6.570;2023-04-03T06:25:05;103552.66;;;-0.02;86.40
75221;BME280;63802;53.232;6.570;2023-04-03T06:27:31;103568.78;;;0.17;85.99
75221;BME280;63802;53.232;6.570;2023-04-03T06:29:57;103578.31;;;0.31;85.68
75221;BME280;63802;53.232;6.570;2023-04-03T06:32:23;103565.91;;;0.30;85.23
75221;BME280;63802;53.232;6.570;2023-04-03T06:34:48;103585.44;;;0.55;84.77
75221;BME280;63802;53.232;6.570;2023-04-03T06:37:18;103584.06;;;0.64;84.77
75221;BME280;63802;53.232;6.570;2023-04-03T06:39:45;103590.59;;;0.68;84.21
75221;BME280;63802;53.232;6.570;2023-04-03T06:42:11;103586.66;;;0.82;83.87
75221;BME280;63802;53.232;6.570;2023-04-03T06:44:36;103589.75;;;0.97;83.37
75221;BME280;63802;53.232;6.570;2023-04-03T06:47:02;103579.72;;;1.04;82.92
75221;BME280;63802;53.232;6.570;2023-04-03T06:49:28;103591.78;;;1.25;82.63
75221;BME280;63802;53.232;6.570;2023-04-03T06:51:57;103577.19;;;1.32;82.11
75221;BME280;63802;53.232;6.570;2023-04-03T06:54:23;103585.88;;;1.46;81.46
75221;BME280;63802;53.232;6.570;2023-04-03T06:56:48;103602.72;;;1.65;81.21
75221;BME280;63802;53.232;6.570;2023-04-03T06:59:14;103584.44;;;1.90;80.73
75221;BME280;63802;53.232;6.570;2023-04-03T07:01:40;103591.56;;;1.96;79.86
75221;BME280;63802;53.232;6.570;2023-04-03T07:04:07;103596.56;;;2.04;79.00
75221;BME280;63802;53.232;6.570;2023-04-03T07:06:33;103606.63;;;2.20;78.69
75221;BME280;63802;53.232;6.570;2023-04-03T07:08:59;103605.88;;;2.36;78.11
75221;BME280;63802;53.232;6.570;2023-04-03T07:11:25;103604.19;;;2.58;77.82
75221;BME280;63802;53.232;6.570;2023-04-03T07:13:51;103601.75;;;2.73;77.12
75221;BME280;63802;53.232;6.570;2023-04-03T07:16:18;103624.81;;;3.09;76.32
75221;BME280;63802;53.232;6.570;2023-04-03T07:18:44;103618.69;;;3.14;75.17
75221;BME280;63802;53.232;6.570;2023-04-03T07:21:10;103607.25;;;3.23;74.55
75221;BME280;63802;53.232;6.570;2023-04-03T07:23:36;103636.19;;;3.28;73.14
75221;BME280;63802;53.232;6.570;2023-04-03T07:26:01;103627.34;;;3.49;72.60
75221;BME280;63802;53.232;6.570;2023-04-03T07:28:27;103635.72;;;3.64;71.92
75221;BME280;63802;53.232;6.570;2023-04-03T07:30:59;103631.63;;;4.00;71.90
75221;BME280;63802;53.232;6.570;2023-04-03T07:33:25;103618.00;;;4.12;70.57
75221;BME280;63802;53.232;6.570;2023-04-03T07:35:51;103626.13;;;4.12;69.56
75221;BME280;63802;53.232;6.570;2023-04-03T07:38:17;103630.34;;;4.24;69.19
75221;BME280;63802;53.232;6.570;2023-04-03T07:40:47;103644.66;;;4.46;68.53
75221;BME280;63802;53.232;6.570;2023-04-03T07:43:13;103642.34;;;4.12;67.81
75221;BME280;63802;53.232;6.570;2023-04-03T07:45:39;103625.25;;;4.28;67.58
75221;BME280;63802;53.232;6.570;2023-04-03T07:48:04;103649.72;;;4.86;67.29
75221;BME280;63802;53.232;6.570;2023-04-03T07:50:33;103647.03;;;4.86;66.76
75221;BME280;63802;53.232;6.570;2023-04-03T07:52:59;103636.66;;;4.78;66.25
75221;BME280;63802;53.232;6.570;2023-04-03T07:55:25;103649.22;;;4.89;66.62
75221;BME280;63802;53.232;6.570;2023-04-03T07:57:51;103651.06;;;5.10;66.10
75221;BME280;63802;53.232;6.570;2023-04-03T08:00:17;103645.03;;;5.03;65.37
75221;BME280;63802;53.232;6.570;2023-04-03T08:02:44;103652.69;;;5.11;64.78
75221;BME280;63802;53.232;6.570;2023-04-03T08:05:15;103654.47;;;4.74;64.16
75221;BME280;63802;53.232;6.570;2023-04-03T08:07:40;103662.19;;;4.87;64.23
75221;BME280;63802;53.232;6.570;2023-04-03T08:10:06;103658.53;;;4.98;64.53
75221;BME280;63802;53.232;6.570;2023-04-03T08:12:32;103658.03;;;5.01;64.33
75221;BME280;63802;53.232;6.570;2023-04-03T08:14:59;103644.16;;;5.24;64.05
75221;BME280;63802;53.232;6.570;2023-04-03T08:17:26;103633.69;;;5.06;63.79
75221;BME280;63802;53.232;6.570;2023-04-03T08:19:51;103650.63;;;5.23;63.47
75221;BME280;63802;53.232;6.570;2023-04-03T08:22:16;103652.88;;;5.31;63.64
75221;BME280;63802;53.232;6.570;2023-04-03T08:24:42;103642.28;;;5.25;62.63
75221;BME280;63802;53.232;6.570;2023-04-03T08:27:07;103634.25;;;5.40;62.83
75221;BME280;63802;53.232;6.570;2023-04-03T08:29:33;103640.72;;;5.34;62.39
75221;BME280;63802;53.232;6.570;2023-04-03T08:31:58;103643.75;;;5.42;62.32
75221;BME280;63802;53.232;6.570;2023-04-03T08:34:24;103630.81;;;5.45;62.46
75221;BME280;63802;53.232;6.570;2023-04-03T08:36:49;103650.50;;;5.72;61.91
75221;BME280;63802;53.232;6.570;2023-04-03T08:39:15;103633.50;;;5.45;61.25
75221;BME280;63802;53.232;6.570;2023-04-03T08:41:44;103645.81;;;5.62;61.39
75221;BME280;63802;53.232;6.570;2023-04-03T08:44:25;103652.06;;;5.31;60.59
75221;BME280;63802;53.232;6.570;2023-04-03T08:52:28;103647.94;;;5.87;61.44
75221;BME280;63802;53.232;6.570;2023-04-03T08:54:59;103642.44;;;5.82;61.22
75221;BME280;63802;53.232;6.570;2023-04-03T08:57:43;103638.59;;;5.73;60.65
75221;BME280;63802;53.232;6.570;2023-04-03T09:02:51;103622.22;;;5.94;58.89
75221;BME280;63802;53.232;6.570;2023-04-03T09:05:35;103620.50;;;6.25;58.65
75221;BME280;63802;53.232;6.570;2023-04-03T09:08:14;103620.59;;;5.93;55.95
75221;BME280;63802;53.232;6.570;2023-04-03T09:10:44;103609.56;;;6.10;55.59
75221;BME280;63802;53.232;6.570;2023-04-03T09:15:54;103632.34;;;6.09;52.12
75221;BME280;63802;53.232;6.570;2023-04-03T09:18:26;103630.94;;;6.01;52.98
75221;BME280;63802;53.232;6.570;2023-04-03T09:21:04;103629.88;;;6.07;52.48
75221;BME280;63802;53.232;6.570;2023-04-03T09:23:53;103612.94;;;6.32;51.85
75221;BME280;63802;53.232;6.570;2023-04-03T09:26:26;103611.13;;;6.63;51.40
75221;BME280;63802;53.232;6.570;2023-04-03T09:28:56;103614.16;;;6.92;51.32
75221;BME280;63802;53.232;6.570;2023-04-03T09:31:26;103611.47;;;6.97;50.65
75221;BME280;63802;53.232;6.570;2023-04-03T09:33:58;103608.16;;;6.74;50.27
75221;BME280;63802;53.232;6.570;2023-04-03T09:36:58;103616.84;;;6.61;49.73
75221;BME280;63802;53.232;6.570;2023-04-03T09:39:26;103618.47;;;6.67;49.15
75221;BME280;63802;53.232;6.570;2023-04-03T09:42:21;103619.03;;;6.80;49.40
75221;BME280;63802;53.232;6.570;2023-04-03T09:44:56;103620.13;;;6.89;48.19
75221;BME280;63802;53.232;6.570;2023-04-03T09:52:37;103608.75;;;7.52;47.52
75221;BME280;63802;53.232;6.570;2023-04-03T09:55:18;103614.44;;;7.66;46.12
75221;BME280;63802;53.232;6.570;2023-04-03T09:57:45;103619.00;;;7.95;46.40
75221;BME280;63802;53.232;6.570;2023-04-03T10:00:21;103614.66;;;7.99;45.35
75221;BME280;63802;53.232;6.570;2023-04-03T10:02:56;103610.75;;;8.31;45.56
75221;BME280;63802;53.232;6.570;2023-04-03T10:08:10;103609.53;;;9.01;44.38
75221;BME280;63802;53.232;6.570;2023-04-03T10:10:36;103604.34;;;9.04;43.66
75221;BME280;63802;53.232;6.570;2023-04-03T10:13:19;103604.19;;;9.24;43.00
75221;BME280;63802;53.232;6.570;2023-04-03T10:16:01;103609.56;;;9.63;42.63
75221;BME280;63802;53.232;6.570;2023-04-03T10:21:29;103608.03;;;10.28;41.53
75221;BME280;63802;53.232;6.570;2023-04-03T10:30:08;103601.41;;;10.10;40.28
75221;BME280;63802;53.232;6.570;2023-04-03T10:35:44;103583.81;;;9.74;39.66
75221;BME280;63802;53.232;6.570;2023-04-03T10:40:57;103587.97;;;11.12;39.80
75221;BME280;63802;53.232;6.570;2023-04-03T10:46:10;103578.84;;;11.03;38.08
75221;BME280;63802;53.232;6.570;2023-04-03T10:48:47;103578.09;;;10.98;36.99
75221;BME280;63802;53.232;6.570;2023-04-03T10:51:41;103577.66;;;10.91;36.81
75221;BME280;63802;53.232;6.570;2023-04-03T10:54:25;103585.34;;;10.89;36.20
75221;BME280;63802;53.232;6.570;2023-04-03T10:56:54;103568.03;;;11.12;36.42
75221;BME280;63802;53.232;6.570;2023-04-03T10:59:55;103572.59;;;11.16;36.91
75221;BME280;63802;53.232;6.570;2023-04-03T11:03:08;103571.53;;;11.31;36.89
75221;BME280;63802;53.232;6.570;2023-04-03T11:05:35;103562.47;;;11.17;36.44
75221;BME280;63802;53.232;6.570;2023-04-03T11:08:56;103562.72;;;11.02;36.99
75221;BME280;63802;53.232;6.570;2023-04-03T11:11:00;103546.81;;;10.71;36.53
75221;BME280;63802;53.232;6.570;2023-04-03T11:16:19;103554.59;;;11.88;37.46
75221;BME280;63802;53.232;6.570;2023-04-03T11:19:19;103549.47;;;11.73;36.00
75221;BME280;63802;53.232;6.570;2023-04-03T11:21:56;103546.38;;;11.61;34.71
75221;BME280;63802;53.232;6.570;2023-04-03T11:24:25;103541.09;;;11.51;34.67
75221;BME280;63802;53.232;6.570;2023-04-03T11:26:54;103547.16;;;11.02;34.92
75221;BME280;63802;53.232;6.570;2023-04-03T11:29:25;103542.59;;;11.57;35.43
75221;BME280;63802;53.232;6.570;2023-04-03T11:34:39;103527.00;;;11.58;34.38
75221;BME280;63802;53.232;6.570;2023-04-03T11:37:20;103530.75;;;12.30;35.71
75221;BME280;63802;53.232;6.570;2023-04-03T11:40:04;103523.38;;;11.62;36.03
75221;BME280;63802;53.232;6.570;2023-04-03T11:42:46;103524.41;;;11.93;35.27
75221;BME280;63802;53.232;6.570;2023-04-03T11:45:54;103512.03;;;11.69;34.36
75221;BME280;63802;53.232;6.570;2023-04-03T11:50:57;103490.53;;;11.62;35.47
75221;BME280;63802;53.232;6.570;2023-04-03T11:53:36;103507.16;;;11.93;37.22
75221;BME280;63802;53.232;6.570;2023-04-03T12:01:50;103504.13;;;11.54;35.96
75221;BME280;63802;53.232;6.570;2023-04-03T12:04:18;103486.81;;;11.58;37.52
75221;BME280;63802;53.232;6.570;2023-04-03T12:11:52;103496.25;;;11.79;35.52
75221;BME280;63802;53.232;6.570;2023-04-03T12:14:22;103487.81;;;11.89;36.37
75221;BME280;63802;53.232;6.570;2023-04-03T12:16:50;103477.38;;;11.91;37.04
75221;BME280;63802;53.232;6.570;2023-04-03T12:40:31;103475.91;;;10.99;35.28
75221;BME280;63802;53.232;6.570;2023-04-03T12:51:05;103474.94;;;10.57;36.71
75221;BME280;63802;53.232;6.570;2023-04-03T12:53:33;103477.19;;;10.55;35.69
75221;BME280;63802;53.232;6.570;2023-04-03T12:58:44;103463.34;;;10.98;36.51
75221;BME280;63802;53.232;6.570;2023-04-03T13:01:12;103458.06;;;10.37;36.30
75221;BME280;63802;53.232;6.570;2023-04-03T13:03:42;103450.78;;;10.97;37.69
75221;BME280;63802;53.232;6.570;2023-04-03T13:06:17;103451.41;;;10.94;35.65
75221;BME280;63802;53.232;6.570;2023-04-03T13:08:59;103435.16;;;10.70;36.18
75221;BME280;63802;53.232;6.570;2023-04-03T13:11:31;103435.38;;;10.87;36.33
75221;BME280;63802;53.232;6.570;2023-04-03T13:14:18;103428.09;;;10.83;36.29
75221;BME280;63802;53.232;6.570;2023-04-03T13:17:14;103437.06;;;10.69;35.70
75221;BME280;63802;53.232;6.570;2023-04-03T13:19:41;103432.78;;;11.23;37.12
75221;BME280;63802;53.232;6.570;2023-04-03T13:22:42;103421.38;;;11.34;35.00
75221;BME280;63802;53.232;6.570;2023-04-03T13:25:13;103418.63;;;11.48;35.44
75221;BME280;63802;53.232;6.570;2023-04-03T13:27:40;103436.75;;;11.03;35.39
75221;BME280;63802;53.232;6.570;2023-04-03T13:30:22;103424.59;;;11.50;35.48
75221;BME280;63802;53.232;6.570;2023-04-03T13:32:48;103424.59;;;11.50;34.92
75221;BME280;63802;53.232;6.570;2023-04-03T13:35:37;103427.56;;;11.54;35.99
75221;BME280;63802;53.232;6.570;2023-04-03T13:38:22;103418.59;;;11.89;35.55
75221;BME280;63802;53.232;6.570;2023-04-03T13:40:53;103418.00;;;11.92;34.88
75221;BME280;63802;53.232;6.570;2023-04-03T13:43:32;103416.38;;;11.91;35.00
75221;BME280;63802;53.232;6.570;2023-04-03T13:46:05;103402.78;;;11.99;34.74
75221;BME280;63802;53.232;6.570;2023-04-03T13:48:42;103420.97;;;12.62;34.80
75221;BME280;63802;53.232;6.570;2023-04-03T13:53:55;103422.47;;;11.74;36.04
75221;BME280;63802;53.232;6.570;2023-04-03T13:59:02;103418.38;;;13.18;35.54
75221;BME280;63802;53.232;6.570;2023-04-03T14:01:44;103419.91;;;13.02;35.01
75221;BME280;63802;53.232;6.570;2023-04-03T14:04:17;103427.63;;;13.00;36.12
75221;BME280;63802;53.232;6.570;2023-04-03T14:06:43;103425.44;;;12.58;36.22
75221;BME280;63802;53.232;6.570;2023-04-03T14:09:13;103402.34;;;12.50;37.18
75221;BME280;63802;53.232;6.570;2023-04-03T14:11:40;103406.16;;;12.19;37.25
75221;BME280;63802;53.232;6.570;2023-04-03T14:14:12;103408.78;;;12.24;37.27
75221;BME280;63802;53.232;6.570;2023-04-03T14:16:41;103414.56;;;11.86;38.08
75221;BME280;63802;53.232;6.570;2023-04-03T14:19:17;103392.50;;;12.27;36.90
75221;BME280;63802;53.232;6.570;2023-04-03T14:21:45;103391.69;;;12.71;37.14
75221;BME280;63802;53.232;6.570;2023-04-03T14:24:11;103414.00;;;13.09;36.79
75221;BME280;63802;53.232;6.570;2023-04-03T14:26:36;103392.88;;;13.09;37.61
75221;BME280;63802;53.232;6.570;2023-04-03T14:29:02;103402.38;;;12.81;36.97
75221;BME280;63802;53.232;6.570;2023-04-03T14:31:27;103393.81;;;12.74;37.20
75221;BME280;63802;53.232;6.570;2023-04-03T14:33:53;103399.34;;;12.60;36.62
75221;BME280;63802;53.232;6.570;2023-04-03T14:36:24;103397.78;;;12.68;37.15
75221;BME280;63802;53.232;6.570;2023-04-03T14:38:51;103399.19;;;12.35;37.51
75221;BME280;63802;53.232;6.570;2023-04-03T14:41:19;103389.19;;;12.92;38.09
75221;BME280;63802;53.232;6.570;2023-04-03T14:43:46;103374.84;;;13.25;38.17
75221;BME280;63802;53.232;6.570;2023-04-03T14:46:15;103385.50;;;12.96;38.41
75221;BME280;63802;53.232;6.570;2023-04-03T14:48:42;103364.00;;;12.50;38.89